Aérodrome :
LOGIN :

S'inscrire | Disclaimer

   EN    FR    IT 

 










Légende :    VFR   VFR Marginal   IFR   IFR Intensif   IFR Très Intensif
Visi : 
Plafond : 
>= 8 km
>= 3000ft
5 à 8 km
1000 à 3000 ft
1500m à 5 km
500 à 1000 ft
800 à 1500m
200 à 500 ft
< 800m
< 200 ft
Symboles :   Orages  Brouillard  Fortes neiges  Fortes précipitations  Vent > 20 kt
SIGMETs :   Divers  Orages  Givrage  Turbulence  Onde Orograph.  Cendres Volcan.






- Altitude de l'aérodrome : -13 ft
- Code IATA : LEY


EHLE - Lelystad

DERNIER METAR :
  • 172125Z AUTO 23011KT 200V260 9999 FEW015CB BKN024 BKN029 07/05 Q1011

METARs EXPIRÉS :
  • 172055Z AUTO 23012KT 200V260 9999 FEW015CB BKN034 BKN038 OVC044 06/04 Q1011 TEMPO 7000 -SHRA
  • 172025Z AUTO 23016KT 190V270 9999 -UP FEW015CB SCT016 BKN036 08/06 Q1011 TEMPO 7000 -SHRA
  • 171955Z AUTO 22012KT 9999 SCT016 BKN019 BKN024 07/06 Q1011 NOSIG
  • 171925Z AUTO 22014KT 9999 SCT015 BKN018 BKN022 08/06 Q1011 NOSIG
  • 171855Z AUTO 22015KT 190V260 9999 FEW015CB BKN016 OVC021 07/05 Q1010 REDZ NOSIG

TAF TAF EHLE
Valide du 17 à 18h jusqu'au 19 à 00h UTC


171657Z 1718/1824 24018G28KT 9999 SCT025
BECMG 1718/1720 25015KT
PROB30
TEMPO 1718/1723 6000 -SHRA SCT020CB BKN030
BECMG 1721/1724 26017G27KT
BECMG 1803/1806 25015KT
BECMG 1809/1812 24018G30KT
PROB30
TEMPO 1811/1818 6000 -SHRA SCT020CB BKN030
BECMG 1819/1822 6000 -RA BKN018
TEMPO 1820/1824 26023G35KT 4000 RA SHRA BKN012 SCT018CB



MET'MAP, la Météo Aéronautique d'un coup d'oeil ! - Copyright ORBIFLY Décembre 2007 - Disclaimer

ORBIFLY MET'MAP TEAM :

Programmation & Développement : Alexandra Zaïnal
Sur une idée originale de : Baudouin d'Aumeries
Assistance à la programmation : Marc-Olivier Méhu
Soutien technique & logistique : Manuel Goepfert

Contact : metmap@orbifly.com




SOURCES & CREDITS :

   NOAA